New Munster, Wisconsin
Current Conditions -  °F | °C
As of 3:35 AM on Sunday 26 Oct 2014 (Local Time) from KBUU Reporting Station
Clear Clear  
Wind Chill: 35°   Ceiling: Unl
Heat Index: 40°   Visibility: 10mi
Dew Point: 28°   Wind: 7mph
Humidity: 63%   Direction: 310°NW
Pressure: 29.99"   Gusts: NA
Location:  42.58°N, 88.23°W
Report Text: KBUU 260835Z AUTO 31006KT 10SM CLR 05/M02 A2999 RMK AO2 T00451020
Loading
Personal Weather Stations






























Interactive Weather Map
Tropical Storm Tracking
New forecast layout! Learn more

10-Day Weather Forecast

Advertisements
Track Severe Weather on mobile